sensor_id;sensor_type;location;lat;lon;timestamp;pressure;altitude;pressure_sealevel;temperature;humidity
63190;BME280;49286;44.460;26.114;2023-02-12T00:01:21;101529.75;;;-1.08;100.00
63190;BME280;49286;44.460;26.114;2023-02-12T00:03:47;101539.53;;;-1.15;100.00
63190;BME280;49286;44.460;26.114;2023-02-12T00:06:13;101417.41;;;-1.99;100.00
63190;BME280;49286;44.460;26.114;2023-02-12T00:08:38;101389.00;;;-2.00;100.00
63190;BME280;49286;44.460;26.114;2023-02-12T00:11:08;101379.78;;;-2.10;100.00
63190;BME280;49286;44.460;26.114;2023-02-12T00:13:34;101419.38;;;-1.81;100.00
63190;BME280;49286;44.460;26.114;2023-02-12T00:16:07;101533.38;;;-1.31;100.00
63190;BME280;49286;44.460;26.114;2023-02-12T00:18:32;101538.44;;;-1.19;100.00
63190;BME280;49286;44.460;26.114;2023-02-12T00:20:59;101379.59;;;-2.00;100.00
63190;BME280;49286;44.460;26.114;2023-02-12T00:23:25;101502.28;;;-1.20;100.00
63190;BME280;49286;44.460;26.114;2023-02-12T00:25:50;101472.00;;;-1.38;100.00
63190;BME280;49286;44.460;26.114;2023-02-12T00:28:16;101395.34;;;-1.82;100.00
63190;BME280;49286;44.460;26.114;2023-02-12T00:30:41;101344.47;;;-1.99;100.00
63190;BME280;49286;44.460;26.114;2023-02-12T00:33:07;101350.53;;;-1.85;100.00
63190;BME280;49286;44.460;26.114;2023-02-12T00:35:32;101389.09;;;-1.85;100.00
63190;BME280;49286;44.460;26.114;2023-02-12T00:37:58;101379.91;;;-1.82;100.00
63190;BME280;49286;44.460;26.114;2023-02-12T00:40:23;101506.44;;;-1.09;100.00
63190;BME280;49286;44.460;26.114;2023-02-12T00:42:50;101509.63;;;-1.13;100.00
63190;BME280;49286;44.460;26.114;2023-02-12T00:45:16;101422.66;;;-1.57;100.00
63190;BME280;49286;44.460;26.114;2023-02-12T00:47:41;101412.69;;;-1.66;100.00
63190;BME280;49286;44.460;26.114;2023-02-12T00:50:07;101356.38;;;-2.01;100.00
63190;BME280;49286;44.460;26.114;2023-02-12T00:52:32;101475.34;;;-1.25;100.00
63190;BME280;49286;44.460;26.114;2023-02-12T00:54:58;101497.13;;;-1.20;100.00
63190;BME280;49286;44.460;26.114;2023-02-12T00:57:23;101453.78;;;-1.54;100.00
63190;BME280;49286;44.460;26.114;2023-02-12T00:59:49;101470.50;;;-1.34;100.00
63190;BME280;49286;44.460;26.114;2023-02-12T01:02:14;101435.97;;;-1.38;100.00
63190;BME280;49286;44.460;26.114;2023-02-12T01:04:40;101360.22;;;-1.81;100.00
63190;BME280;49286;44.460;26.114;2023-02-12T01:07:06;101334.19;;;-2.13;100.00
63190;BME280;49286;44.460;26.114;2023-02-12T01:09:31;101468.41;;;-1.27;100.00
63190;BME280;49286;44.460;26.114;2023-02-12T01:11:57;101466.34;;;-1.19;100.00
63190;BME280;49286;44.460;26.114;2023-02-12T01:14:22;101359.13;;;-1.58;100.00
63190;BME280;49286;44.460;26.114;2023-02-12T01:16:47;101467.00;;;-1.08;100.00
63190;BME280;49286;44.460;26.114;2023-02-12T01:19:13;101329.88;;;-1.87;100.00
63190;BME280;49286;44.460;26.114;2023-02-12T01:21:38;101431.56;;;-1.39;100.00
63190;BME280;49286;44.460;26.114;2023-02-12T01:24:04;101447.81;;;-1.27;100.00
63190;BME280;49286;44.460;26.114;2023-02-12T01:26:30;101425.13;;;-1.45;100.00
63190;BME280;49286;44.460;26.114;2023-02-12T01:29:00;101283.25;;;-2.31;100.00
63190;BME280;49286;44.460;26.114;2023-02-12T01:31:29;101297.69;;;-2.07;100.00
63190;BME280;49286;44.460;26.114;2023-02-12T01:33:57;101411.56;;;-1.43;100.00
63190;BME280;49286;44.460;26.114;2023-02-12T01:36:23;101424.06;;;-1.49;100.00
63190;BME280;49286;44.460;26.114;2023-02-12T01:38:49;101255.75;;;-2.59;100.00
63190;BME280;49286;44.460;26.114;2023-02-12T01:41:18;101298.41;;;-2.09;100.00
63190;BME280;49286;44.460;26.114;2023-02-12T01:43:44;101297.31;;;-2.13;100.00
63190;BME280;49286;44.460;26.114;2023-02-12T01:46:13;101321.13;;;-2.02;100.00
63190;BME280;49286;44.460;26.114;2023-02-12T01:48:42;101440.59;;;-1.32;100.00
63190;BME280;49286;44.460;26.114;2023-02-12T01:51:11;101246.97;;;-2.36;100.00
63190;BME280;49286;44.460;26.114;2023-02-12T01:53:44;101415.44;;;-1.36;100.00
63190;BME280;49286;44.460;26.114;2023-02-12T01:56:11;101438.53;;;-1.38;100.00
63190;BME280;49286;44.460;26.114;2023-02-12T01:58:39;101395.47;;;-1.54;100.00
63190;BME280;49286;44.460;26.114;2023-02-12T02:01:09;101362.22;;;-1.77;100.00
63190;BME280;49286;44.460;26.114;2023-02-12T02:03:36;101479.69;;;-1.11;100.00
63190;BME280;49286;44.460;26.114;2023-02-12T02:06:09;101480.41;;;-1.14;100.00
63190;BME280;49286;44.460;26.114;2023-02-12T02:08:37;101457.84;;;-1.31;100.00
63190;BME280;49286;44.460;26.114;2023-02-12T02:11:03;101338.31;;;-2.28;100.00
63190;BME280;49286;44.460;26.114;2023-02-12T02:13:48;101489.31;;;-1.22;100.00
63190;BME280;49286;44.460;26.114;2023-02-12T02:16:33;101392.50;;;-1.73;100.00
63190;BME280;49286;44.460;26.114;2023-02-12T02:19:16;101349.53;;;-2.01;100.00
63190;BME280;49286;44.460;26.114;2023-02-12T02:22:13;101351.88;;;-2.04;100.00
63190;BME280;49286;44.460;26.114;2023-02-12T02:24:46;101521.41;;;-1.17;100.00
63190;BME280;49286;44.460;26.114;2023-02-12T02:27:49;101476.22;;;-1.38;100.00
63190;BME280;49286;44.460;26.114;2023-02-12T02:35:56;101494.34;;;-1.10;100.00
63190;BME280;49286;44.460;26.114;2023-02-12T02:38:49;101458.72;;;-1.31;100.00
63190;BME280;49286;44.460;26.114;2023-02-12T02:41:18;101514.75;;;-1.13;100.00
63190;BME280;49286;44.460;26.114;2023-02-12T02:43:49;101495.38;;;-1.21;100.00
63190;BME280;49286;44.460;26.114;2023-02-12T02:46:25;101518.16;;;-1.14;100.00
63190;BME280;49286;44.460;26.114;2023-02-12T02:48:56;101514.28;;;-1.21;100.00
63190;BME280;49286;44.460;26.114;2023-02-12T02:51:29;101394.47;;;-1.82;100.00
63190;BME280;49286;44.460;26.114;2023-02-12T02:54:22;101452.06;;;-1.54;100.00
63190;BME280;49286;44.460;26.114;2023-02-12T02:56:54;101399.41;;;-1.72;100.00
63190;BME280;49286;44.460;26.114;2023-02-12T02:59:29;101523.78;;;-0.93;100.00
63190;BME280;49286;44.460;26.114;2023-02-12T03:02:00;101525.66;;;-0.91;100.00
63190;BME280;49286;44.460;26.114;2023-02-12T03:04:40;101503.66;;;-0.99;100.00
63190;BME280;49286;44.460;26.114;2023-02-12T03:07:12;101529.44;;;-0.86;100.00
63190;BME280;49286;44.460;26.114;2023-02-12T03:09:47;101507.34;;;-0.95;100.00
63190;BME280;49286;44.460;26.114;2023-02-12T03:12:19;101397.63;;;-1.60;100.00
63190;BME280;49286;44.460;26.114;2023-02-12T03:14:53;101538.44;;;-0.79;100.00
63190;BME280;49286;44.460;26.114;2023-02-12T03:17:30;101531.50;;;-0.80;100.00
63190;BME280;49286;44.460;26.114;2023-02-12T03:20:06;101533.97;;;-1.08;100.00
63190;BME280;49286;44.460;26.114;2023-02-12T03:22:37;101401.69;;;-1.77;100.00
63190;BME280;49286;44.460;26.114;2023-02-12T03:25:22;101569.44;;;-0.77;100.00
63190;BME280;49286;44.460;26.114;2023-02-12T03:28:13;101571.94;;;-0.79;100.00
63190;BME280;49286;44.460;26.114;2023-02-12T03:35:58;101438.72;;;-1.61;100.00
63190;BME280;49286;44.460;26.114;2023-02-12T03:38:47;101449.00;;;-1.48;100.00
63190;BME280;49286;44.460;26.114;2023-02-12T03:41:23;101419.09;;;-1.59;100.00
63190;BME280;49286;44.460;26.114;2023-02-12T03:46:31;101415.66;;;-1.73;100.00
63190;BME280;49286;44.460;26.114;2023-02-12T03:49:04;101573.63;;;-0.79;100.00
63190;BME280;49286;44.460;26.114;2023-02-12T03:51:40;101542.59;;;-0.94;100.00
63190;BME280;49286;44.460;26.114;2023-02-12T03:54:08;101572.63;;;-0.81;100.00
63190;BME280;49286;44.460;26.114;2023-02-12T03:56:42;101556.06;;;-0.85;100.00
63190;BME280;49286;44.460;26.114;2023-02-12T03:59:09;101409.28;;;-1.92;100.00
63190;BME280;49286;44.460;26.114;2023-02-12T04:01:35;101514.56;;;-1.30;100.00
63190;BME280;49286;44.460;26.114;2023-02-12T04:04:03;101581.13;;;-0.82;100.00
63190;BME280;49286;44.460;26.114;2023-02-12T04:06:31;101599.00;;;-0.86;100.00
63190;BME280;49286;44.460;26.114;2023-02-12T04:09:00;101562.69;;;-1.15;100.00
63190;BME280;49286;44.460;26.114;2023-02-12T04:17:43;101600.47;;;-1.02;100.00
63190;BME280;49286;44.460;26.114;2023-02-12T04:23:14;101562.22;;;-1.10;100.00
63190;BME280;49286;44.460;26.114;2023-02-12T04:28:03;101568.53;;;-1.31;100.00
63190;BME280;49286;44.460;26.114;2023-02-12T04:31:02;101624.69;;;-1.25;100.00
63190;BME280;49286;44.460;26.114;2023-02-12T04:33:34;101583.25;;;-1.42;100.00
63190;BME280;49286;44.460;26.114;2023-02-12T04:36:27;101620.63;;;-1.22;100.00
63190;BME280;49286;44.460;26.114;2023-02-12T04:38:56;101466.25;;;-1.99;100.00
63190;BME280;49286;44.460;26.114;2023-02-12T04:41:24;101474.13;;;-2.09;100.00
63190;BME280;49286;44.460;26.114;2023-02-12T04:43:50;101575.34;;;-1.45;100.00
63190;BME280;49286;44.460;26.114;2023-02-12T04:46:15;101508.53;;;-1.82;100.00
63190;BME280;49286;44.460;26.114;2023-02-12T04:48:54;101615.28;;;-1.25;100.00
63190;BME280;49286;44.460;26.114;2023-02-12T04:51:20;101454.16;;;-2.00;100.00
63190;BME280;49286;44.460;26.114;2023-02-12T04:53:46;101486.31;;;-1.68;100.00
63190;BME280;49286;44.460;26.114;2023-02-12T04:56:12;101609.34;;;-1.24;100.00
63190;BME280;49286;44.460;26.114;2023-02-12T04:58:38;101473.59;;;-2.17;100.00
63190;BME280;49286;44.460;26.114;2023-02-12T05:01:04;101484.31;;;-2.10;100.00
63190;BME280;49286;44.460;26.114;2023-02-12T05:03:30;101484.34;;;-1.97;100.00
63190;BME280;49286;44.460;26.114;2023-02-12T05:06:01;101490.78;;;-2.16;100.00
63190;BME280;49286;44.460;26.114;2023-02-12T05:08:27;101527.22;;;-1.84;100.00
63190;BME280;49286;44.460;26.114;2023-02-12T05:10:52;101603.34;;;-1.36;100.00
63190;BME280;49286;44.460;26.114;2023-02-12T05:13:18;101629.38;;;-1.07;100.00
63190;BME280;49286;44.460;26.114;2023-02-12T05:15:43;101543.53;;;-1.59;100.00
63190;BME280;49286;44.460;26.114;2023-02-12T05:18:09;101594.06;;;-1.34;100.00
63190;BME280;49286;44.460;26.114;2023-02-12T05:20:34;101595.88;;;-1.33;100.00
63190;BME280;49286;44.460;26.114;2023-02-12T05:22:59;101493.94;;;-1.95;100.00
63190;BME280;49286;44.460;26.114;2023-02-12T05:25:25;101617.16;;;-1.61;100.00
63190;BME280;49286;44.460;26.114;2023-02-12T05:27:50;101572.41;;;-1.63;100.00
63190;BME280;49286;44.460;26.114;2023-02-12T05:30:16;101501.81;;;-2.05;100.00
63190;BME280;49286;44.460;26.114;2023-02-12T05:32:41;101667.81;;;-1.10;100.00
63190;BME280;49286;44.460;26.114;2023-02-12T05:35:07;101661.25;;;-1.18;100.00
63190;BME280;49286;44.460;26.114;2023-02-12T05:37:34;101532.47;;;-1.83;100.00
63190;BME280;49286;44.460;26.114;2023-02-12T05:40:02;101673.47;;;-1.02;100.00
63190;BME280;49286;44.460;26.114;2023-02-12T05:42:28;101652.38;;;-1.10;100.00
63190;BME280;49286;44.460;26.114;2023-02-12T05:44:53;101520.81;;;-2.03;100.00
63190;BME280;49286;44.460;26.114;2023-02-12T05:47:19;101527.75;;;-1.77;100.00
63190;BME280;49286;44.460;26.114;2023-02-12T05:49:45;101594.44;;;-1.41;100.00
63190;BME280;49286;44.460;26.114;2023-02-12T05:52:10;101546.81;;;-1.86;100.00
63190;BME280;49286;44.460;26.114;2023-02-12T05:54:36;101706.94;;;-1.40;100.00
63190;BME280;49286;44.460;26.114;2023-02-12T05:57:01;101687.09;;;-1.16;100.00
63190;BME280;49286;44.460;26.114;2023-02-12T05:59:27;101588.28;;;-1.57;100.00
63190;BME280;49286;44.460;26.114;2023-02-12T06:01:52;101600.16;;;-1.59;100.00
63190;BME280;49286;44.460;26.114;2023-02-12T06:04:24;101583.00;;;-1.58;100.00
63190;BME280;49286;44.460;26.114;2023-02-12T06:06:51;101561.75;;;-1.56;100.00
63190;BME280;49286;44.460;26.114;2023-02-12T06:09:16;101608.66;;;-1.21;100.00
63190;BME280;49286;44.460;26.114;2023-02-12T06:11:42;101740.34;;;-0.52;100.00
63190;BME280;49286;44.460;26.114;2023-02-12T06:14:12;101586.56;;;-1.31;100.00
63190;BME280;49286;44.460;26.114;2023-02-12T06:16:38;101730.66;;;-0.43;100.00
63190;BME280;49286;44.460;26.114;2023-02-12T06:19:04;101593.91;;;-1.11;100.00
63190;BME280;49286;44.460;26.114;2023-02-12T06:21:31;101628.13;;;-0.87;100.00
63190;BME280;49286;44.460;26.114;2023-02-12T06:23:57;101739.59;;;-0.37;100.00
63190;BME280;49286;44.460;26.114;2023-02-12T06:26:23;101732.34;;;-0.43;100.00
63190;BME280;49286;44.460;26.114;2023-02-12T06:28:48;101607.63;;;-1.62;100.00
63190;BME280;49286;44.460;26.114;2023-02-12T06:33:47;101620.69;;;-1.34;100.00
63190;BME280;49286;44.460;26.114;2023-02-12T06:36:12;101627.44;;;-0.84;100.00
63190;BME280;49286;44.460;26.114;2023-02-12T06:38:38;101760.22;;;-0.11;100.00
63190;BME280;49286;44.460;26.114;2023-02-12T06:41:04;101749.22;;;0.05;100.00
63190;BME280;49286;44.460;26.114;2023-02-12T06:43:29;101749.09;;;0.04;100.00
63190;BME280;49286;44.460;26.114;2023-02-12T06:45:55;101628.25;;;-0.58;100.00
63190;BME280;49286;44.460;26.114;2023-02-12T06:48:20;101718.03;;;0.02;100.00
63190;BME280;49286;44.460;26.114;2023-02-12T06:50:46;101745.63;;;0.03;100.00
63190;BME280;49286;44.460;26.114;2023-02-12T06:53:11;101633.59;;;-0.42;100.00
63190;BME280;49286;44.460;26.114;2023-02-12T06:55:37;101749.28;;;0.20;100.00
63190;BME280;49286;44.460;26.114;2023-02-12T06:58:02;101778.75;;;0.37;100.00
63190;BME280;49286;44.460;26.114;2023-02-12T07:00:28;101781.84;;;0.31;100.00
63190;BME280;49286;44.460;26.114;2023-02-12T07:02:56;101769.47;;;0.54;100.00
63190;BME280;49286;44.460;26.114;2023-02-12T07:05:22;101774.59;;;0.67;100.00
63190;BME280;49286;44.460;26.114;2023-02-12T07:07:48;101661.16;;;0.14;100.00
63190;BME280;49286;44.460;26.114;2023-02-12T07:10:13;101755.13;;;0.72;100.00
63190;BME280;49286;44.460;26.114;2023-02-12T07:12:39;101780.88;;;0.99;100.00
63190;BME280;49286;44.460;26.114;2023-02-12T07:15:05;101798.97;;;1.14;100.00
63190;BME280;49286;44.460;26.114;2023-02-12T07:17:31;101811.94;;;1.00;100.00
63190;BME280;49286;44.460;26.114;2023-02-12T07:19:56;101678.75;;;0.34;100.00
63190;BME280;49286;44.460;26.114;2023-02-12T07:22:22;101798.66;;;1.22;100.00
63190;BME280;49286;44.460;26.114;2023-02-12T07:24:47;101801.59;;;1.29;100.00
63190;BME280;49286;44.460;26.114;2023-02-12T07:27:13;101674.03;;;0.70;100.00
63190;BME280;49286;44.460;26.114;2023-02-12T07:29:39;101798.59;;;1.51;100.00
63190;BME280;49286;44.460;26.114;2023-02-12T07:32:05;101829.66;;;1.80;100.00
63190;BME280;49286;44.460;26.114;2023-02-12T07:34:30;101680.59;;;0.93;100.00
63190;BME280;49286;44.460;26.114;2023-02-12T07:36:56;101813.50;;;1.84;100.00
63190;BME280;49286;44.460;26.114;2023-02-12T07:39:21;101713.00;;;1.31;100.00
63190;BME280;49286;44.460;26.114;2023-02-12T07:41:47;101748.41;;;1.62;100.00
63190;BME280;49286;44.460;26.114;2023-02-12T07:44:12;101858.19;;;2.26;100.00
63190;BME280;49286;44.460;26.114;2023-02-12T07:46:43;101855.59;;;2.41;100.00
63190;BME280;49286;44.460;26.114;2023-02-12T07:49:20;101873.47;;;2.37;100.00
63190;BME280;49286;44.460;26.114;2023-02-12T07:51:46;101731.88;;;1.60;100.00
63190;BME280;49286;44.460;26.114;2023-02-12T07:54:13;101780.03;;;2.02;100.00
63190;BME280;49286;44.460;26.114;2023-02-12T07:56:40;101849.59;;;2.42;100.00
63190;BME280;49286;44.460;26.114;2023-02-12T07:59:10;101836.91;;;2.47;97.19
63190;BME280;49286;44.460;26.114;2023-02-12T08:01:37;101758.16;;;1.97;97.86
63190;BME280;49286;44.460;26.114;2023-02-12T08:04:08;101769.81;;;2.20;97.53
63190;BME280;49286;44.460;26.114;2023-02-12T08:06:37;101829.75;;;2.74;94.53
63190;BME280;49286;44.460;26.114;2023-02-12T08:09:06;101773.84;;;2.46;92.75
63190;BME280;49286;44.460;26.114;2023-02-12T08:11:32;101789.22;;;2.60;94.96
63190;BME280;49286;44.460;26.114;2023-02-12T08:13:59;101840.47;;;2.96;94.87
63190;BME280;49286;44.460;26.114;2023-02-12T08:16:26;101886.63;;;3.35;96.57
63190;BME280;49286;44.460;26.114;2023-02-12T08:18:53;101746.59;;;2.69;96.50
63190;BME280;49286;44.460;26.114;2023-02-12T08:21:23;101810.25;;;3.13;100.00
63190;BME280;49286;44.460;26.114;2023-02-12T08:23:49;101745.84;;;2.72;100.00
63190;BME280;49286;44.460;26.114;2023-02-12T08:26:16;101878.91;;;3.53;100.00
63190;BME280;49286;44.460;26.114;2023-02-12T08:28:48;101876.63;;;3.59;100.00
63190;BME280;49286;44.460;26.114;2023-02-12T08:31:20;101838.28;;;3.37;100.00
63190;BME280;49286;44.460;26.114;2023-02-12T08:33:46;101896.91;;;3.66;100.00
63190;BME280;49286;44.460;26.114;2023-02-12T08:36:14;101760.25;;;3.00;100.00
63190;BME280;49286;44.460;26.114;2023-02-12T08:38:42;101746.25;;;2.96;100.00
63190;BME280;49286;44.460;26.114;2023-02-12T08:41:16;101896.59;;;3.94;100.00
63190;BME280;49286;44.460;26.114;2023-02-12T08:43:43;101864.97;;;3.85;100.00
63190;BME280;49286;44.460;26.114;2023-02-12T08:46:14;101772.75;;;3.23;100.00
63190;BME280;49286;44.460;26.114;2023-02-12T08:48:41;101914.09;;;4.15;100.00
63190;BME280;49286;44.460;26.114;2023-02-12T08:51:12;101785.41;;;3.51;100.00
63190;BME280;49286;44.460;26.114;2023-02-12T08:53:40;101901.38;;;4.03;100.00
63190;BME280;49286;44.460;26.114;2023-02-12T08:56:07;101917.91;;;4.21;100.00
63190;BME280;49286;44.460;26.114;2023-02-12T08:58:33;101796.94;;;3.40;100.00
63190;BME280;49286;44.460;26.114;2023-02-12T09:01:01;101824.53;;;3.72;100.00
63190;BME280;49286;44.460;26.114;2023-02-12T09:03:27;101935.72;;;4.32;100.00
63190;BME280;49286;44.460;26.114;2023-02-12T09:05:52;101932.53;;;4.37;100.00
63190;BME280;49286;44.460;26.114;2023-02-12T09:08:18;101807.69;;;3.64;100.00
63190;BME280;49286;44.460;26.114;2023-02-12T09:10:44;101935.34;;;4.42;100.00
63190;BME280;49286;44.460;26.114;2023-02-12T09:13:11;101811.34;;;3.68;100.00
63190;BME280;49286;44.460;26.114;2023-02-12T09:15:39;101819.72;;;3.80;100.00
63190;BME280;49286;44.460;26.114;2023-02-12T09:18:06;101904.75;;;4.18;100.00
63190;BME280;49286;44.460;26.114;2023-02-12T09:20:32;101963.06;;;4.41;95.79
63190;BME280;49286;44.460;26.114;2023-02-12T09:22:58;101856.09;;;3.98;95.78
63190;BME280;49286;44.460;26.114;2023-02-12T09:25:25;101953.91;;;4.32;98.81
63190;BME280;49286;44.460;26.114;2023-02-12T09:27:50;101923.38;;;4.28;100.00
63190;BME280;49286;44.460;26.114;2023-02-12T09:30:16;101965.22;;;4.50;100.00
63190;BME280;49286;44.460;26.114;2023-02-12T09:32:42;101990.34;;;4.68;100.00
63190;BME280;49286;44.460;26.114;2023-02-12T09:35:08;101986.81;;;4.49;100.00
63190;BME280;49286;44.460;26.114;2023-02-12T09:37:36;101955.06;;;4.20;100.00
63190;BME280;49286;44.460;26.114;2023-02-12T09:40:02;101881.06;;;4.12;100.00
63190;BME280;49286;44.460;26.114;2023-02-12T09:42:55;101961.91;;;4.71;100.00
63190;BME280;49286;44.460;26.114;2023-02-12T09:45:26;101826.88;;;4.02;100.00
63190;BME280;49286;44.460;26.114;2023-02-12T09:50:55;101985.06;;;4.84;100.00
63190;BME280;49286;44.460;26.114;2023-02-12T09:53:27;101976.03;;;4.76;100.00
63190;BME280;49286;44.460;26.114;2023-02-12T09:55:54;101980.69;;;4.65;100.00
63190;BME280;49286;44.460;26.114;2023-02-12T09:58:42;101984.78;;;4.96;100.00
63190;BME280;49286;44.460;26.114;2023-02-12T10:01:14;101981.16;;;4.92;100.00
63190;BME280;49286;44.460;26.114;2023-02-12T10:03:40;101965.38;;;4.89;96.98
63190;BME280;49286;44.460;26.114;2023-02-12T10:06:24;101976.31;;;4.82;92.61
63190;BME280;49286;44.460;26.114;2023-02-12T10:11:42;101877.16;;;4.38;91.99
63190;BME280;49286;44.460;26.114;2023-02-12T10:17:34;101958.84;;;4.79;95.82
63190;BME280;49286;44.460;26.114;2023-02-12T10:20:32;101874.38;;;4.35;92.02
63190;BME280;49286;44.460;26.114;2023-02-12T10:23:43;101995.47;;;4.84;93.68
63190;BME280;49286;44.460;26.114;2023-02-12T10:28:39;102004.78;;;4.97;90.45
63190;BME280;49286;44.460;26.114;2023-02-12T10:31:12;101882.34;;;4.38;89.71
63190;BME280;49286;44.460;26.114;2023-02-12T10:33:46;101872.38;;;4.30;89.89
63190;BME280;49286;44.460;26.114;2023-02-12T10:39:34;101992.63;;;5.33;91.33
63190;BME280;49286;44.460;26.114;2023-02-12T10:42:11;102000.38;;;5.32;91.07
63190;BME280;49286;44.460;26.114;2023-02-12T10:44:39;102001.81;;;5.44;90.81
63190;BME280;49286;44.460;26.114;2023-02-12T10:47:05;101989.44;;;5.39;91.10
63190;BME280;49286;44.460;26.114;2023-02-12T10:49:33;101967.63;;;5.37;91.33
63190;BME280;49286;44.460;26.114;2023-02-12T10:52:25;101978.59;;;5.49;93.38
63190;BME280;49286;44.460;26.114;2023-02-12T10:54:56;102024.41;;;5.83;90.50
63190;BME280;49286;44.460;26.114;2023-02-12T10:57:29;101896.44;;;5.17;93.56
63190;BME280;49286;44.460;26.114;2023-02-12T10:59:58;101931.53;;;5.44;97.46
63190;BME280;49286;44.460;26.114;2023-02-12T11:02:38;101992.94;;;5.78;94.91
63190;BME280;49286;44.460;26.114;2023-02-12T11:05:24;102014.31;;;5.71;94.20
63190;BME280;49286;44.460;26.114;2023-02-12T11:07:50;101887.44;;;4.73;95.52
63190;BME280;49286;44.460;26.114;2023-02-12T11:10:20;101980.47;;;5.52;95.86
63190;BME280;49286;44.460;26.114;2023-02-12T11:12:49;102013.50;;;5.72;96.07
63190;BME280;49286;44.460;26.114;2023-02-12T11:15:17;102018.25;;;5.81;95.97
63190;BME280;49286;44.460;26.114;2023-02-12T11:21:06;102013.44;;;5.70;96.72
63190;BME280;49286;44.460;26.114;2023-02-12T11:26:35;102021.88;;;5.84;97.27
63190;BME280;49286;44.460;26.114;2023-02-12T11:29:22;102021.31;;;5.72;96.84
63190;BME280;49286;44.460;26.114;2023-02-12T11:32:06;102020.91;;;5.82;99.65
63190;BME280;49286;44.460;26.114;2023-02-12T11:34:36;102012.28;;;5.83;100.00
63190;BME280;49286;44.460;26.114;2023-02-12T11:37:02;101896.31;;;5.14;98.87
63190;BME280;49286;44.460;26.114;2023-02-12T11:39:30;102029.22;;;5.74;97.89
63190;BME280;49286;44.460;26.114;2023-02-12T11:42:00;101974.06;;;5.45;100.00
63190;BME280;49286;44.460;26.114;2023-02-12T11:44:35;101899.03;;;5.17;99.95
63190;BME280;49286;44.460;26.114;2023-02-12T11:47:05;102018.97;;;5.96;99.33
63190;BME280;49286;44.460;26.114;2023-02-12T11:49:37;102009.94;;;5.70;100.00
63190;BME280;49286;44.460;26.114;2023-02-12T11:52:04;101895.91;;;5.24;100.00
63190;BME280;49286;44.460;26.114;2023-02-12T11:54:40;101899.22;;;5.20;100.00
63190;BME280;49286;44.460;26.114;2023-02-12T12:03:10;102014.09;;;6.23;99.57
63190;BME280;49286;44.460;26.114;2023-02-12T12:05:45;102021.03;;;6.23;100.00
63190;BME280;49286;44.460;26.114;2023-02-12T12:11:27;101921.44;;;5.91;96.85
63190;BME280;49286;44.460;26.114;2023-02-12T12:16:50;101882.53;;;5.75;96.68
63190;BME280;49286;44.460;26.114;2023-02-12T12:27:59;102003.13;;;6.72;87.56
63190;BME280;49286;44.460;26.114;2023-02-12T12:56:03;102028.66;;;7.02;80.05
63190;BME280;49286;44.460;26.114;2023-02-12T13:07:05;102065.41;;;7.07;80.83
63190;BME280;49286;44.460;26.114;2023-02-12T13:22:36;102071.72;;;7.12;74.31
63190;BME280;49286;44.460;26.114;2023-02-12T13:25:19;101950.81;;;6.06;73.78
63190;BME280;49286;44.460;26.114;2023-02-12T13:27:46;102042.56;;;6.80;73.70
63190;BME280;49286;44.460;26.114;2023-02-12T13:32:42;102078.06;;;7.18;79.05
63190;BME280;49286;44.460;26.114;2023-02-12T13:35:23;101948.97;;;6.67;80.26
63190;BME280;49286;44.460;26.114;2023-02-12T13:37:54;102080.19;;;7.50;80.03
63190;BME280;49286;44.460;26.114;2023-02-12T13:40:23;101960.13;;;6.84;78.96
63190;BME280;49286;44.460;26.114;2023-02-12T13:45:34;102086.34;;;7.29;79.27
63190;BME280;49286;44.460;26.114;2023-02-12T13:48:19;102081.00;;;7.26;79.98
63190;BME280;49286;44.460;26.114;2023-02-12T13:51:15;102084.03;;;7.37;80.23
63190;BME280;49286;44.460;26.114;2023-02-12T13:56:58;102074.84;;;7.47;76.17
63190;BME280;49286;44.460;26.114;2023-02-12T13:59:38;101951.78;;;6.71;78.46
63190;BME280;49286;44.460;26.114;2023-02-12T14:04:38;102092.59;;;7.33;73.11
63190;BME280;49286;44.460;26.114;2023-02-12T14:07:08;102032.59;;;6.91;73.00
63190;BME280;49286;44.460;26.114;2023-02-12T14:09:42;102014.44;;;6.52;72.39
63190;BME280;49286;44.460;26.114;2023-02-12T14:12:16;101980.94;;;6.61;71.72
63190;BME280;49286;44.460;26.114;2023-02-12T14:14:45;102105.09;;;7.19;70.82
63190;BME280;49286;44.460;26.114;2023-02-12T14:20:30;102115.53;;;7.19;73.05
63190;BME280;49286;44.460;26.114;2023-02-12T14:25:56;102106.09;;;7.02;72.19
63190;BME280;49286;44.460;26.114;2023-02-12T14:28:32;102121.44;;;7.15;72.71
63190;BME280;49286;44.460;26.114;2023-02-12T14:33:42;102079.97;;;6.81;74.70
63190;BME280;49286;44.460;26.114;2023-02-12T14:41:31;102129.66;;;7.03;76.70
63190;BME280;49286;44.460;26.114;2023-02-12T14:46:56;102118.91;;;6.76;75.90
63190;BME280;49286;44.460;26.114;2023-02-12T14:57:31;102149.28;;;6.54;80.58
63190;BME280;49286;44.460;26.114;2023-02-12T15:02:44;102174.81;;;6.42;83.11
63190;BME280;49286;44.460;26.114;2023-02-12T15:05:19;102063.19;;;5.57;84.29
63190;BME280;49286;44.460;26.114;2023-02-12T15:10:20;102115.34;;;5.78;85.51
63190;BME280;49286;44.460;26.114;2023-02-12T15:13:00;102186.66;;;6.16;86.39
63190;BME280;49286;44.460;26.114;2023-02-12T15:15:38;102048.84;;;5.29;87.02
63190;BME280;49286;44.460;26.114;2023-02-12T15:21:40;102211.75;;;5.60;93.11
63190;BME280;49286;44.460;26.114;2023-02-12T15:26:39;102210.75;;;5.58;92.13
63190;BME280;49286;44.460;26.114;2023-02-12T15:29:06;102184.13;;;5.46;93.83
63190;BME280;49286;44.460;26.114;2023-02-12T15:31:32;102219.03;;;5.67;93.15
63190;BME280;49286;44.460;26.114;2023-02-12T15:34:01;102227.41;;;5.62;94.71
63190;BME280;49286;44.460;26.114;2023-02-12T15:36:29;102126.00;;;4.77;97.78